Time;durP1;ratioP1;P1;durP2;ratioP2;P2;SDS_P1;SDS_P2;PMS_P1;PMS_P2;Temp;Humidity;BMP_temperature;BMP_pressure;BME280_temperature;BME280_humidity;BME280_pressure;Samples;Min_cycle;Max_cycle;Signal;HPM_P1;HPM_P2
2021/09/13 00:02:23;;;;;;;19.05;16.05;;;;;;;17.23;80.70;100592.66;1722372;82;27701;-79
2021/09/13 00:04:50;;;;;;;18.98;16.10;;;;;;;17.22;80.84;100595.06;1726104;81;25884;-79
2021/09/13 00:07:17;;;;;;;43.15;27.60;;;;;;;17.23;81.02;100595.38;1721319;81;25794;-79
2021/09/13 00:09:44;;;;;;;31.77;21.85;;;;;;;17.23;81.11;100588.61;1732826;81;25828;-79
2021/09/13 00:12:13;;;;;;;22.02;17.07;;;;;;;17.24;81.39;100591.59;1750740;81;25690;-80
2021/09/13 00:14:40;;;;;;;25.72;18.80;;;;;;;17.21;81.42;100598.84;1700630;82;28259;-80
2021/09/13 00:17:08;;;;;;;29.65;22.87;;;;;;;17.22;81.51;100592.36;1724885;81;25812;-79
2021/09/13 00:19:35;;;;;;;26.05;19.40;;;;;;;17.25;81.61;100590.03;1703443;81;25931;-79
2021/09/13 00:22:02;;;;;;;21.30;18.17;;;;;;;17.27;81.60;100577.61;1758077;81;25751;-79
2021/09/13 00:24:29;;;;;;;21.37;17.05;;;;;;;17.28;81.53;100578.72;1730251;81;26465;-79
2021/09/13 00:26:56;;;;;;;28.17;19.65;;;;;;;17.28;81.61;100576.02;1728284;81;27485;-79
2021/09/13 00:29:24;;;;;;;27.77;21.17;;;;;;;17.30;81.55;100585.28;1709527;81;25919;-80
2021/09/13 00:31:52;;;;;;;27.25;19.27;;;;;;;17.29;81.42;100581.74;1753291;81;25837;-79
2021/09/13 00:34:21;;;;;;;22.25;17.73;;;;;;;17.27;81.35;100589.27;1717270;81;25957;-79
2021/09/13 00:36:49;;;;;;;20.32;16.97;;;;;;;17.24;81.21;100588.37;1693812;81;26007;-80
2021/09/13 00:39:17;;;;;;;20.37;17.35;;;;;;;17.20;81.23;100586.34;1740635;80;27520;-78
2021/09/13 00:41:46;;;;;;;19.10;16.48;;;;;;;17.17;81.25;100589.53;1726309;80;25804;-79
2021/09/13 00:44:13;;;;;;;20.25;17.52;;;;;;;17.14;81.24;100589.98;1730410;80;25770;-79
2021/09/13 00:46:40;;;;;;;20.10;16.37;;;;;;;17.09;80.98;100593.37;1700459;80;25963;-79
2021/09/13 00:49:07;;;;;;;19.30;15.88;;;;;;;17.05;81.15;100599.46;1753042;81;25729;-80
2021/09/13 00:51:35;;;;;;;24.98;17.82;;;;;;;17.01;81.17;100599.63;1707201;81;27699;-79
2021/09/13 00:54:02;;;;;;;20.85;17.25;;;;;;;16.94;81.18;100593.78;1740353;80;26586;-79
2021/09/13 00:56:30;;;;;;;19.20;15.90;;;;;;;16.92;81.29;100599.95;1732858;80;25777;-79
2021/09/13 00:58:57;;;;;;;23.15;17.70;;;;;;;16.90;81.44;100594.45;1721645;80;26586;-79
2021/09/13 01:01:24;;;;;;;31.48;22.82;;;;;;;16.87;81.52;100589.52;1658395;82;25634;-80
2021/09/13 01:03:51;;;;;;;33.20;23.90;;;;;;;16.83;81.81;100589.13;1742293;81;27381;-79
2021/09/13 01:06:18;;;;;;;26.37;21.57;;;;;;;16.82;82.09;100586.14;1752859;81;25436;-79
2021/09/13 01:08:46;;;;;;;27.25;20.97;;;;;;;16.79;82.20;100584.39;1705322;81;25816;-80
2021/09/13 01:11:13;;;;;;;32.17;24.77;;;;;;;16.78;82.26;100585.47;1708160;80;25775;-80
2021/09/13 01:13:40;;;;;;;24.72;22.07;;;;;;;16.74;82.37;100586.42;1727489;80;26527;-80
2021/09/13 01:16:08;;;;;;;22.67;20.30;;;;;;;16.72;82.45;100576.91;1748918;80;27586;-79
2021/09/13 01:18:35;;;;;;;26.45;22.95;;;;;;;16.73;82.57;100583.44;1701408;80;25975;-79
2021/09/13 01:21:04;;;;;;;23.02;20.12;;;;;;;16.73;82.57;100582.61;1688736;82;25318;-79
2021/09/13 01:23:34;;;;;;;22.98;18.90;;;;;;;16.73;82.51;100580.73;1753118;81;25814;-79
2021/09/13 01:26:09;;;;;;;23.98;20.88;;;;;;;16.72;82.25;100579.06;1752671;81;25892;-80
2021/09/13 01:28:38;;;;;;;26.70;21.23;;;;;;;16.68;82.20;100575.17;1703160;80;27378;-79
2021/09/13 01:31:06;;;;;;;26.55;20.80;;;;;;;16.66;82.09;100579.98;1714765;80;25815;-80
2021/09/13 01:33:35;;;;;;;34.70;23.40;;;;;;;16.63;81.90;100576.91;1765298;80;26479;-79
2021/09/13 01:36:02;;;;;;;50.55;28.65;;;;;;;16.59;81.92;100575.72;1728472;82;25549;-79
2021/09/13 01:38:32;;;;;;;71.87;36.30;;;;;;;16.56;81.85;100574.29;1697207;81;25982;-79
2021/09/13 01:40:59;;;;;;;;;;;;;;;16.55;82.08;100575.33;1716525;82;27321;-79
2021/09/13 01:43:27;;;;;;;67.82;33.60;;;;;;;16.53;82.04;100572.57;1758451;80;25310;-79
2021/09/13 01:45:55;;;;;;;44.00;25.10;;;;;;;16.50;82.03;100582.47;1726678;80;26631;-79
2021/09/13 01:48:22;;;;;;;24.65;19.52;;;;;;;16.50;82.20;100579.77;1705246;81;26763;-79
2021/09/13 01:50:51;;;;;;;23.00;17.60;;;;;;;16.53;82.41;100573.92;1712526;80;25839;-79
2021/09/13 01:53:20;;;;;;;20.12;16.27;;;;;;;16.51;82.14;100576.83;1744506;81;28326;-79
2021/09/13 01:55:47;;;;;;;20.12;16.12;;;;;;;16.49;82.03;100580.77;1716589;82;25863;-79
2021/09/13 01:58:14;;;;;;;19.30;15.85;;;;;;;16.45;81.87;100579.06;1708298;80;26166;-79
2021/09/13 02:00:42;;;;;;;21.55;16.55;;;;;;;16.41;81.87;100577.86;1699338;81;25876;-79
2021/09/13 02:03:09;;;;;;;19.80;16.45;;;;;;;16.40;81.95;100582.15;1757060;81;25843;-80
2021/09/13 02:05:38;;;;;;;19.45;16.42;;;;;;;16.38;81.99;100579.65;1700095;81;27551;-79
2021/09/13 02:08:05;;;;;;;20.32;15.83;;;;;;;16.36;81.92;100581.75;1727643;80;26667;-79
2021/09/13 02:10:32;;;;;;;18.48;16.15;;;;;;;16.35;81.95;100572.52;1692567;81;25846;-80
2021/09/13 02:13:00;;;;;;;19.32;16.42;;;;;;;16.33;81.97;100574.62;1764809;80;25722;-79
2021/09/13 02:15:28;;;;;;;18.77;16.57;;;;;;;16.30;82.03;100573.20;1713147;81;25739;-80
2021/09/13 02:17:56;;;;;;;21.40;16.85;;;;;;;16.30;82.12;100578.59;1732307;80;27463;-79
2021/09/13 02:20:23;;;;;;;20.43;17.20;;;;;;;16.29;82.14;100582.89;1715514;80;26436;-79
2021/09/13 02:22:50;;;;;;;22.00;16.62;;;;;;;16.25;82.17;100581.17;1775829;79;26582;-79
2021/09/13 02:25:17;;;;;;;19.40;17.23;;;;;;;16.23;82.27;100584.59;1740301;80;26742;-79
2021/09/13 02:27:45;;;;;;;20.05;17.40;;;;;;;16.23;82.30;100581.89;1715136;80;25938;-79
2021/09/13 02:30:13;;;;;;;21.93;17.23;;;;;;;16.20;82.40;100586.41;1737073;81;27348;-80
2021/09/13 02:32:40;;;;;;;21.30;17.02;;;;;;;16.21;82.45;100585.34;1742927;80;26528;-79
2021/09/13 02:35:09;;;;;;;23.10;18.75;;;;;;;16.19;82.53;100580.69;1710740;81;25867;-80
2021/09/13 02:37:38;;;;;;;21.00;17.17;;;;;;;16.20;82.80;100584.54;1703029;81;26367;-79
2021/09/13 02:40:07;;;;;;;20.57;18.12;;;;;;;16.19;82.86;100580.17;1696376;81;26607;-79
2021/09/13 02:42:35;;;;;;;20.20;17.75;;;;;;;16.15;82.92;100582.19;1722737;81;27562;-79
2021/09/13 02:45:04;;;;;;;21.40;18.12;;;;;;;16.15;82.97;100580.84;1717047;81;25833;-79
2021/09/13 02:47:31;;;;;;;22.20;17.17;;;;;;;16.13;83.13;100578.36;1693545;81;25790;-79
2021/09/13 02:49:59;;;;;;;23.60;18.62;;;;;;;16.12;83.06;100580.75;1696683;81;26195;-79
2021/09/13 02:52:26;;;;;;;21.23;17.98;;;;;;;16.11;83.33;100579.11;1734431;81;25323;-79
2021/09/13 02:54:54;;;;;;;23.15;19.32;;;;;;;16.14;83.47;100587.30;1685453;81;28422;-79
2021/09/13 02:57:21;;;;;;;23.83;18.90;;;;;;;16.12;83.65;100585.36;1692207;83;26397;-79
2021/09/13 02:59:50;;;;;;;22.10;18.55;;;;;;;16.11;83.92;100589.09;1706811;81;26554;-80
2021/09/13 03:02:17;;;;;;;22.37;18.60;;;;;;;16.09;83.90;100579.86;1701999;81;25826;-79
2021/09/13 03:04:44;;;;;;;23.38;18.73;;;;;;;16.10;83.89;100580.15;1705985;81;25896;-79
2021/09/13 03:07:13;;;;;;;30.20;19.77;;;;;;;16.11;83.93;100581.81;1715288;81;27669;-79
2021/09/13 03:09:41;;;;;;;21.82;19.20;;;;;;;16.11;84.07;100581.81;1723793;81;25955;-80
2021/09/13 03:12:09;;;;;;;22.98;18.40;;;;;;;16.13;83.96;100580.23;1733233;81;25938;-79
2021/09/13 03:14:38;;;;;;;21.15;18.85;;;;;;;16.10;83.81;100581.50;1703398;81;26194;-80
2021/09/13 03:17:05;;;;;;;17.92;13.83;;;;;;;16.10;83.94;100582.05;1685523;82;26538;-80
2021/09/13 03:19:32;;;;;;;14.47;13.00;;;;;;;16.06;83.44;100587.05;1690236;81;28257;-80
2021/09/13 03:21:59;;;;;;;14.28;12.30;;;;;;;15.96;82.93;100584.56;1706063;81;26230;-79
2021/09/13 03:24:26;;;;;;;15.70;13.28;;;;;;;15.86;82.72;100585.08;1707152;81;25796;-79
2021/09/13 03:26:53;;;;;;;15.13;13.25;;;;;;;15.78;82.89;100589.93;1694960;81;26517;-78
2021/09/13 03:29:22;;;;;;;16.40;12.90;;;;;;;15.73;83.12;100586.53;1710389;81;26573;-78
2021/09/13 03:31:49;;;;;;;18.82;15.85;;;;;;;15.70;83.21;100581.56;1736210;80;27514;-79
2021/09/13 03:34:17;;;;;;;15.78;13.98;;;;;;;15.69;83.74;100584.49;1708771;81;25991;-78
2021/09/13 03:36:44;;;;;;;20.75;17.70;;;;;;;15.69;83.61;100579.09;1703752;80;25620;-78
2021/09/13 03:39:11;;;;;;;20.60;17.62;;;;;;;15.70;84.04;100590.18;1686583;81;26451;-79
2021/09/13 03:41:38;;;;;;;19.40;17.17;;;;;;;15.71;84.27;100588.63;1731082;81;25754;-79
2021/09/13 03:44:05;;;;;;;22.58;18.15;;;;;;;15.73;84.24;100591.94;1707966;81;27582;-78
2021/09/13 03:46:33;;;;;;;23.00;17.23;;;;;;;15.72;84.49;100590.27;1692968;81;25748;-78
2021/09/13 03:49:06;;;;;;;27.60;18.50;;;;;;;15.74;84.66;100593.57;1677575;81;26519;-79
2021/09/13 03:51:34;;;;;;;24.67;19.70;;;;;;;15.75;84.98;100589.84;1753114;80;25791;-79
2021/09/13 03:54:01;;;;;;;24.40;20.02;;;;;;;15.76;85.00;100592.83;1753991;80;25764;-79
2021/09/13 03:56:28;;;;;;;27.80;20.37;;;;;;;15.79;85.16;100586.16;1717381;82;27506;-79
2021/09/13 03:58:56;;;;;;;28.30;21.17;;;;;;;15.82;85.26;100591.14;1699128;81;25873;-79
2021/09/13 04:01:23;;;;;;;27.10;21.55;;;;;;;15.85;85.38;100595.56;1759595;80;25797;-79
2021/09/13 04:03:51;;;;;;;27.52;21.48;;;;;;;15.88;85.65;100596.48;1742787;80;26558;-78
2021/09/13 04:06:23;;;;;;;26.57;20.55;;;;;;;15.89;85.56;100589.19;1720371;80;25862;-79
2021/09/13 04:09:05;;;;;;;26.02;21.10;;;;;;;15.91;85.70;100589.81;1726833;81;27079;-79
2021/09/13 04:11:34;;;;;;;26.55;21.60;;;;;;;15.93;85.81;100589.87;1749103;80;26401;-79
2021/09/13 04:14:01;;;;;;;28.38;22.10;;;;;;;15.95;85.93;100589.13;1719321;82;25977;-79
2021/09/13 04:16:30;;;;;;;28.75;22.02;;;;;;;15.98;85.91;100591.91;1721022;81;26636;-79
2021/09/13 04:19:16;;;;;;;26.52;21.70;;;;;;;16.00;86.02;100593.87;1732576;81;25743;-79
2021/09/13 04:21:46;;;;;;;25.52;21.12;;;;;;;15.99;86.16;100601.17;1715188;82;27660;-78
2021/09/13 04:24:18;;;;;;;31.42;22.45;;;;;;;15.98;86.27;100604.91;1746889;81;25879;-79
2021/09/13 04:26:58;;;;;;;32.48;21.48;;;;;;;15.99;86.41;100599.82;1672338;81;25936;-80
2021/09/13 04:29:33;;;;;;;29.15;22.42;;;;;;;15.99;86.59;100608.44;1696458;81;25721;-78
2021/09/13 04:32:20;;;;;;;29.00;22.95;;;;;;;16.00;86.53;100605.51;1726459;80;25303;-79
2021/09/13 04:35:03;;;;;;;28.80;21.87;;;;;;;16.02;86.68;100607.98;1753717;81;27462;-80
2021/09/13 04:37:38;;;;;;;34.88;25.10;;;;;;;16.04;86.80;100614.82;1696820;81;25823;-79
2021/09/13 04:40:23;;;;;;;37.38;22.67;;;;;;;16.05;86.86;100613.79;1644920;85;25908;-80
2021/09/13 04:42:58;;;;;;;31.10;22.93;;;;;;;16.07;87.02;100606.80;1599999;86;25862;-80
2021/09/13 04:45:29;;;;;;;31.52;23.50;;;;;;;16.07;86.99;100611.69;1730256;78;25845;-78
2021/09/13 04:48:04;;;;;;;27.52;22.62;;;;;;;16.09;87.08;100615.52;1772699;78;27720;-79
2021/09/13 04:50:33;;;;;;;31.30;23.32;;;;;;;16.10;87.11;100612.58;1737147;78;25869;-79
2021/09/13 04:53:20;;;;;;;31.17;22.20;;;;;;;16.12;87.18;100615.08;1727265;80;25340;-79
2021/09/13 04:55:48;;;;;;;30.50;22.75;;;;;;;16.15;87.20;100615.45;1759130;81;25854;-80
2021/09/13 04:58:17;;;;;;;28.42;22.95;;;;;;;16.18;87.28;100610.97;1724011;81;26573;-79
2021/09/13 05:00:44;;;;;;;28.25;23.15;;;;;;;16.18;87.36;100617.72;1727672;81;28304;-79
2021/09/13 05:03:11;;;;;;;33.67;24.18;;;;;;;16.17;87.40;100618.76;1731583;81;25937;-79
2021/09/13 05:05:38;;;;;;;32.25;23.85;;;;;;;16.20;87.50;100623.73;1757148;81;25716;-79
2021/09/13 05:08:06;;;;;;;32.58;23.87;;;;;;;16.21;87.58;100625.36;1731673;81;25965;-79
2021/09/13 05:10:33;;;;;;;27.70;22.58;;;;;;;16.23;87.62;100619.73;1701112;81;25834;-79
2021/09/13 05:13:01;;;;;;;28.85;22.02;;;;;;;16.26;87.68;100617.94;1706088;81;27624;-79
2021/09/13 05:15:28;;;;;;;31.82;24.60;;;;;;;16.29;87.84;100622.92;1756680;81;25775;-79
2021/09/13 05:17:55;;;;;;;27.95;23.67;;;;;;;16.33;87.84;100619.23;1704057;81;26014;-79
2021/09/13 05:20:22;;;;;;;26.93;22.75;;;;;;;16.36;87.97;100620.15;1727069;81;26527;-79
2021/09/13 05:22:49;;;;;;;30.55;24.18;;;;;;;16.39;88.04;100627.80;1728842;81;25778;-78
2021/09/13 05:25:19;;;;;;;31.12;24.85;;;;;;;16.41;88.08;100627.88;1759449;81;27585;-79
2021/09/13 05:27:47;;;;;;;31.60;24.07;;;;;;;16.44;88.31;100630.66;1710170;80;26484;-79
2021/09/13 05:30:15;;;;;;;28.52;23.57;;;;;;;16.45;88.29;100634.48;1719226;80;25918;-79
2021/09/13 05:32:43;;;;;;;35.55;25.88;;;;;;;16.46;88.35;100636.67;1735128;81;26157;-79
2021/09/13 05:35:12;;;;;;;35.90;26.12;;;;;;;16.47;88.43;100636.44;1787415;80;25912;-79
2021/09/13 05:37:40;;;;;;;39.35;25.97;;;;;;;16.48;88.55;100628.64;1696565;81;27677;-80
2021/09/13 05:40:10;;;;;;;37.42;26.60;;;;;;;16.53;88.71;100636.12;1715176;80;26113;-79
2021/09/13 05:42:37;;;;;;;30.15;23.30;;;;;;;16.55;88.69;100642.93;1740329;81;25889;-79
2021/09/13 05:45:06;;;;;;;33.95;23.22;;;;;;;16.58;88.68;100634.38;1781409;80;26566;-79
2021/09/13 05:47:34;;;;;;;32.33;24.15;;;;;;;16.60;88.64;100639.55;1684707;81;25863;-79
2021/09/13 05:50:03;;;;;;;31.50;23.73;;;;;;;16.61;88.79;100635.81;1732142;80;27587;-79
2021/09/13 05:52:31;;;;;;;47.73;32.33;;;;;;;16.61;88.82;100636.65;1736901;80;25896;-80
2021/09/13 05:54:58;;;;;;;34.60;25.82;;;;;;;16.65;89.00;100639.72;1753810;80;25279;-79
2021/09/13 05:57:26;;;;;;;35.52;25.23;;;;;;;16.70;89.08;100646.09;1708964;80;26275;-79
2021/09/13 05:59:53;;;;;;;39.55;26.95;;;;;;;16.72;89.03;100643.98;1726431;80;26620;-79
2021/09/13 06:02:21;;;;;;;36.10;25.80;;;;;;;16.77;89.17;100645.50;1754571;80;27576;-79
2021/09/13 06:05:03;;;;;;;28.85;22.93;;;;;;;16.80;89.14;100642.36;1751302;81;25755;-79
2021/09/13 06:07:30;;;;;;;29.87;23.15;;;;;;;16.82;89.22;100642.95;1694573;81;26386;-80
2021/09/13 06:09:57;;;;;;;25.37;21.17;;;;;;;16.84;89.22;100639.50;1739827;80;25825;-79
2021/09/13 06:12:25;;;;;;;30.88;23.92;;;;;;;16.87;89.38;100634.16;1773649;80;25901;-79
2021/09/13 06:15:00;;;;;;;32.45;24.65;;;;;;;16.90;89.46;100641.29;1778110;80;28412;-79
2021/09/13 06:17:28;;;;;;;26.40;20.80;;;;;;;16.93;89.43;100642.20;1696949;80;25705;-79
2021/09/13 06:19:55;;;;;;;28.92;22.40;;;;;;;16.97;89.47;100630.38;1727057;80;25849;-79
2021/09/13 06:22:22;;;;;;;31.60;23.10;;;;;;;17.01;89.50;100625.33;1739103;80;26247;-79
2021/09/13 06:24:50;;;;;;;27.65;22.02;;;;;;;17.04;89.55;100623.54;1724997;81;25850;-79
2021/09/13 06:27:18;;;;;;;27.40;23.05;;;;;;;17.09;89.59;100626.36;1703987;81;27293;-79
2021/09/13 06:29:46;;;;;;;28.23;22.48;;;;;;;17.15;89.76;100632.25;1719709;82;25374;-79
2021/09/13 06:32:14;;;;;;;35.20;25.72;;;;;;;17.20;89.70;100639.97;1725132;81;25768;-79
2021/09/13 06:34:41;;;;;;;30.00;21.68;;;;;;;17.25;89.54;100634.70;1771499;80;25797;-79
2021/09/13 06:37:08;;;;;;;28.92;21.65;;;;;;;17.31;89.67;100643.78;1714789;80;25847;-79
2021/09/13 06:39:36;;;;;;;32.25;23.35;;;;;;;17.35;89.54;100638.20;1723697;80;28152;-79
2021/09/13 06:42:04;;;;;;;26.25;20.88;;;;;;;17.39;89.50;100640.73;1754178;80;25779;-80
2021/09/13 06:44:37;;;;;;;28.30;20.60;;;;;;;17.41;89.19;100639.98;1772743;80;26219;-79
2021/09/13 06:47:09;;;;;;;27.85;22.75;;;;;;;17.44;89.13;100642.23;1713059;80;26707;-79
2021/09/13 06:49:37;;;;;;;31.68;21.95;;;;;;;17.45;89.20;100638.49;1710465;81;25866;-79
2021/09/13 06:52:06;;;;;;;29.15;20.75;;;;;;;17.48;89.22;100642.91;1744625;80;27556;-79
2021/09/13 06:54:33;;;;;;;28.75;22.48;;;;;;;17.51;89.23;100639.75;1748946;80;26663;-79
2021/09/13 06:57:01;;;;;;;32.98;23.70;;;;;;;17.54;89.37;100643.89;1712300;81;25843;-80
2021/09/13 06:59:28;;;;;;;27.13;21.62;;;;;;;17.59;89.31;100644.03;1690588;80;25920;-79
2021/09/13 07:01:55;;;;;;;30.25;22.67;;;;;;;17.65;89.41;100652.06;1732081;81;25873;-80
2021/09/13 07:04:24;;;;;;;29.55;20.90;;;;;;;17.68;89.19;100646.71;1761357;80;27557;-80
2021/09/13 07:06:52;;;;;;;28.10;20.50;;;;;;;17.71;89.29;100648.94;1708654;81;25835;-80
2021/09/13 07:09:20;;;;;;;26.07;20.97;;;;;;;17.73;89.00;100647.66;1715094;80;25785;-79
2021/09/13 07:11:47;;;;;;;29.63;22.22;;;;;;;17.77;89.04;100645.84;1737456;81;25849;-80
2021/09/13 07:14:14;;;;;;;27.17;19.52;;;;;;;17.83;89.17;100644.39;1760972;80;25751;-80
2021/09/13 07:16:41;;;;;;;26.48;20.12;;;;;;;17.90;89.04;100647.00;1706324;81;28199;-79
2021/09/13 07:19:10;;;;;;;25.57;20.85;;;;;;;17.94;89.02;100652.24;1700346;81;25362;-80
2021/09/13 07:21:38;;;;;;;26.45;21.42;;;;;;;18.03;89.11;100657.59;1762505;79;26504;-80
2021/09/13 07:24:05;;;;;;;36.70;23.20;;;;;;;18.09;89.06;100655.33;1754524;81;25783;-80
2021/09/13 07:26:32;;;;;;;26.82;20.12;;;;;;;18.15;88.70;100653.03;1723151;80;26028;-80
2021/09/13 07:28:59;;;;;;;25.82;20.25;;;;;;;18.23;88.87;100658.93;1700193;81;27452;-80
2021/09/13 07:31:26;;;;;;;24.80;19.95;;;;;;;18.28;88.46;100659.03;1730455;81;25927;-79
2021/09/13 07:33:53;;;;;;;28.77;20.23;;;;;;;18.31;88.43;100661.28;1757447;81;25807;-79
2021/09/13 07:36:20;;;;;;;26.25;21.70;;;;;;;18.36;88.35;100668.72;1707561;81;25945;-80
2021/09/13 07:38:47;;;;;;;24.72;19.52;;;;;;;18.41;87.93;100669.64;1712395;80;25918;-80
2021/09/13 07:41:14;;;;;;;27.77;20.92;;;;;;;18.50;88.35;100672.06;1725335;81;27580;-80
2021/09/13 07:43:41;;;;;;;34.75;24.87;;;;;;;18.57;88.02;100667.31;1738887;80;25639;-80
2021/09/13 07:46:08;;;;;;;27.65;20.50;;;;;;;18.67;87.79;100666.21;1729894;80;25823;-80
2021/09/13 07:48:35;;;;;;;25.80;20.20;;;;;;;18.74;87.87;100665.01;1746895;81;26279;-80
2021/09/13 07:51:02;;;;;;;25.72;21.55;;;;;;;18.83;87.59;100662.22;1777624;79;25785;-80
2021/09/13 07:53:29;;;;;;;24.72;20.70;;;;;;;18.93;87.47;100665.14;1698506;81;27568;-80
2021/09/13 07:55:56;;;;;;;21.57;18.80;;;;;;;19.01;87.03;100668.03;1762378;80;26193;-80
2021/09/13 07:58:23;;;;;;;24.52;20.77;;;;;;;19.06;86.99;100668.95;1697210;80;25925;-80
2021/09/13 08:00:50;;;;;;;26.62;20.92;;;;;;;19.16;87.00;100666.44;1742045;80;26198;-80
2021/09/13 08:03:17;;;;;;;28.55;21.35;;;;;;;19.26;86.72;100667.19;1700273;81;25835;-79
2021/09/13 08:05:44;;;;;;;25.88;21.30;;;;;;;19.37;86.97;100666.35;1776628;80;27467;-79
2021/09/13 08:08:12;;;;;;;24.37;20.55;;;;;;;19.47;86.80;100670.61;1730821;80;25325;-80
2021/09/13 08:10:40;;;;;;;25.80;21.35;;;;;;;19.53;86.19;100675.59;1720892;80;25884;-80
2021/09/13 08:13:08;;;;;;;29.90;19.90;;;;;;;19.61;86.39;100675.23;1716884;80;25769;-80
2021/09/13 08:15:36;;;;;;;28.62;20.25;;;;;;;19.66;86.09;100680.20;1742337;80;25848;-80
2021/09/13 08:18:03;;;;;;;22.40;18.70;;;;;;;19.76;85.97;100674.95;1725813;80;28335;-80
2021/09/13 08:20:31;;;;;;;20.60;17.55;;;;;;;19.84;85.53;100680.53;1707167;81;25701;-80
2021/09/13 08:22:59;;;;;;;22.25;17.90;;;;;;;19.88;85.38;100680.33;1754353;81;26406;-80
2021/09/13 08:25:26;;;;;;;22.00;17.57;;;;;;;19.93;84.95;100687.22;1760449;81;25924;-80
2021/09/13 08:27:55;;;;;;;23.55;17.23;;;;;;;20.00;85.17;100683.79;1714759;81;25872;-80
2021/09/13 08:30:22;;;;;;;18.42;16.40;;;;;;;20.04;84.22;100688.22;1709069;80;28120;-80
2021/09/13 08:32:49;;;;;;;18.80;16.80;;;;;;;20.09;84.00;100681.48;1699499;81;25821;-80
2021/09/13 08:35:16;;;;;;;17.00;14.53;;;;;;;20.18;84.33;100681.37;1763961;80;25308;-80
2021/09/13 08:37:43;;;;;;;17.25;14.85;;;;;;;20.30;84.64;100684.32;1723790;81;25799;-79
2021/09/13 08:40:10;;;;;;;17.15;14.43;;;;;;;20.41;83.96;100684.77;1704687;81;25846;-80
2021/09/13 08:42:47;;;;;;;20.17;15.60;;;;;;;20.49;83.29;100680.27;1705314;81;28128;-80
2021/09/13 08:45:24;;;;;;;19.02;14.68;;;;;;;20.53;82.12;100686.05;1741056;81;25845;-80
2021/09/13 08:48:06;;;;;;;16.12;12.50;;;;;;;20.61;82.40;100681.53;1713592;81;25884;-80
2021/09/13 08:52:59;;;;;;;16.52;13.75;;;;;;;20.74;81.45;100686.62;1677390;81;25863;-80
2021/09/13 08:55:26;;;;;;;13.03;11.63;;;;;;;20.85;81.97;100686.22;1730272;80;27465;-80
2021/09/13 08:57:54;;;;;;;16.62;13.45;;;;;;;20.90;78.83;100687.64;1742879;81;25817;-80
2021/09/13 09:00:22;;;;;;;17.30;13.70;;;;;;;20.95;79.75;100680.91;1715755;81;25737;-80
2021/09/13 09:02:49;;;;;;;13.88;11.38;;;;;;;21.02;79.72;100691.08;1711947;80;26596;-80
2021/09/13 09:05:16;;;;;;;10.23;9.20;;;;;;;21.12;79.60;100686.62;1745775;81;25849;-80
2021/09/13 09:07:54;;;;;;;16.65;11.20;;;;;;;21.22;78.83;100688.09;1750441;81;27639;-80
2021/09/13 09:10:24;;;;;;;11.50;9.20;;;;;;;21.28;77.88;100690.33;1763379;80;26552;-80
2021/09/13 09:13:10;;;;;;;11.40;9.80;;;;;;;21.33;77.09;100687.14;1682029;82;26504;-80
2021/09/13 09:15:54;;;;;;;14.35;9.80;;;;;;;21.37;77.20;100695.62;1752020;81;27221;-80
2021/09/13 09:18:24;;;;;;;12.82;10.25;;;;;;;21.45;76.68;100690.54;1702992;82;25884;-81
2021/09/13 09:20:52;;;;;;;10.95;9.58;;;;;;;21.56;76.70;100686.02;1725137;81;27571;-80
2021/09/13 09:23:19;;;;;;;11.25;9.33;;;;;;;21.62;74.79;100684.19;1677648;81;26711;-80
2021/09/13 09:25:47;;;;;;;13.05;9.35;;;;;;;21.64;74.53;100683.39;1744319;81;25701;-80
2021/09/13 09:28:16;;;;;;;10.78;9.40;;;;;;;21.72;73.98;100679.66;1742498;80;26552;-80
2021/09/13 09:30:46;;;;;;;9.93;8.98;;;;;;;21.86;74.50;100681.44;1724473;80;25992;-80
2021/09/13 09:33:19;;;;;;;9.65;8.50;;;;;;;21.98;74.17;100687.01;1744014;80;27385;-80
2021/09/13 09:35:54;;;;;;;11.78;8.63;;;;;;;21.99;72.57;100687.30;1713576;82;26031;-80
2021/09/13 09:38:43;;;;;;;10.30;8.30;;;;;;;21.98;72.75;100688.37;1725327;81;26190;-80
2021/09/13 09:41:13;;;;;;;12.45;8.75;;;;;;;21.96;72.85;100695.99;1740194;81;25909;-80
2021/09/13 09:44:00;;;;;;;9.50;8.48;;;;;;;21.91;72.00;100686.42;1715503;80;25896;-80
2021/09/13 09:46:42;;;;;;;9.95;8.38;;;;;;;21.88;72.06;100691.55;1740177;81;27389;-81
2021/09/13 09:49:16;;;;;;;10.05;8.45;;;;;;;21.85;71.66;100690.19;1694495;80;25337;-81
2021/09/13 09:51:49;;;;;;;10.38;8.63;;;;;;;21.86;72.07;100690.45;1715641;82;25836;-80
2021/09/13 09:54:26;;;;;;;11.03;8.95;;;;;;;21.87;71.36;100688.55;1696011;82;25765;-80
2021/09/13 09:57:09;;;;;;;9.20;8.00;;;;;;;21.83;71.14;100688.80;1726504;82;25746;-81
2021/09/13 09:59:39;;;;;;;9.98;8.83;;;;;;;21.78;71.52;100688.70;1706769;82;27642;-80
2021/09/13 10:02:18;;;;;;;9.65;8.75;;;;;;;21.70;71.59;100685.08;1695861;82;25960;-80
2021/09/13 10:04:54;;;;;;;10.23;9.23;;;;;;;21.66;72.08;100685.31;1714218;82;26005;-80
2021/09/13 10:07:22;;;;;;;9.33;8.43;;;;;;;21.50;72.12;100685.69;1737524;82;25823;-80
2021/09/13 10:09:49;;;;;;;10.45;8.30;;;;;;;21.36;72.40;100685.81;1701140;82;25324;-80
2021/09/13 10:12:17;;;;;;;11.33;8.95;;;;;;;21.23;72.67;100684.31;1716867;82;28233;-80
2021/09/13 10:14:45;;;;;;;9.75;8.63;;;;;;;21.13;72.54;100690.97;1692340;82;25325;-80
2021/09/13 10:17:13;;;;;;;9.13;8.08;;;;;;;21.04;73.20;100696.57;1736145;82;26613;-80
2021/09/13 10:19:42;;;;;;;9.03;8.13;;;;;;;20.98;73.45;100696.19;1718984;82;26260;-80
2021/09/13 10:22:09;;;;;;;10.05;9.03;;;;;;;20.92;73.71;100702.66;1680463;82;25933;-80
2021/09/13 10:24:39;;;;;;;12.80;9.95;;;;;;;20.86;74.07;100707.75;1694274;82;27475;-80
2021/09/13 10:27:14;;;;;;;11.08;9.98;;;;;;;20.87;74.83;100703.93;1732287;81;26465;-80
2021/09/13 10:29:41;;;;;;;12.75;10.23;;;;;;;20.86;75.11;100709.11;1720575;82;25911;-80
2021/09/13 10:32:11;;;;;;;12.43;10.98;;;;;;;20.86;75.26;100706.39;1681333;82;25513;-80
2021/09/13 10:34:53;;;;;;;11.47;10.27;;;;;;;20.87;75.71;100703.13;1681361;82;25903;-80
2021/09/13 10:37:21;;;;;;;11.57;9.73;;;;;;;20.90;76.75;100699.89;1732191;82;27692;-80
2021/09/13 10:40:09;;;;;;;12.70;9.98;;;;;;;20.99;77.14;100706.02;1718443;82;25833;-80
2021/09/13 10:42:47;;;;;;;13.05;10.23;;;;;;;21.14;77.67;100694.00;1701306;82;26607;-79
2021/09/13 10:45:40;;;;;;;10.75;9.15;;;;;;;21.31;79.11;100692.56;1695051;82;25733;-80
2021/09/13 10:48:17;;;;;;;11.30;9.25;;;;;;;21.51;77.40;100691.44;1737709;82;25787;-80
2021/09/13 10:50:56;;;;;;;9.38;8.48;;;;;;;21.67;76.65;100686.41;1720441;82;28097;-80
2021/09/13 10:53:29;;;;;;;12.88;9.08;;;;;;;21.79;75.36;100682.98;1713331;82;25848;-80
2021/09/13 10:56:07;;;;;;;9.03;8.10;;;;;;;21.89;74.75;100683.66;1679596;82;25848;-80
2021/09/13 10:58:44;;;;;;;9.38;8.05;;;;;;;21.99;74.43;100679.66;1732931;82;26337;-80
2021/09/13 11:01:26;;;;;;;10.28;7.70;;;;;;;22.14;73.87;100675.69;1731081;81;26568;-80
2021/09/13 11:04:04;;;;;;;8.20;7.40;;;;;;;22.28;73.02;100672.82;1688846;83;27494;-80
2021/09/13 11:06:39;;;;;;;7.30;6.60;;;;;;;22.37;72.39;100678.05;1698137;82;25989;-80
2021/09/13 11:09:10;;;;;;;7.45;6.50;;;;;;;22.37;71.34;100677.25;1745688;81;25802;-80
2021/09/13 11:11:45;;;;;;;;;;;;;;;22.37;71.57;100678.05;1721768;81;25837;-80
2021/09/13 11:14:21;;;;;;;9.05;7.15;;;;;;;22.40;71.08;100672.08;1689645;81;25842;-80
2021/09/13 11:16:53;;;;;;;10.15;7.25;;;;;;;22.52;70.76;100674.06;1744669;81;27548;-81
2021/09/13 11:19:24;;;;;;;8.65;7.05;;;;;;;22.61;70.76;100674.42;1740866;81;25985;-79
2021/09/13 11:21:56;;;;;;;8.58;6.62;;;;;;;22.71;69.16;100677.23;1693906;81;25811;-80
2021/09/13 11:24:29;;;;;;;7.10;6.40;;;;;;;22.81;69.44;100672.64;1664208;81;25843;-80
2021/09/13 11:27:04;;;;;;;8.38;6.03;;;;;;;22.90;68.15;100666.93;1745345;81;25713;-80